createdAt,value
2022-12-04T00:02:01.876Z,-0.58
2022-12-04T00:04:30.652Z,-0.55
2022-12-04T00:06:59.305Z,-0.54
2022-12-04T00:09:27.848Z,-0.52
2022-12-04T00:11:56.411Z,-0.53
2022-12-04T00:14:26.360Z,-0.56
2022-12-04T00:16:55.008Z,-0.60
2022-12-04T00:19:23.539Z,-0.60
2022-12-04T00:21:52.312Z,-0.57
2022-12-04T00:24:20.828Z,-0.56
2022-12-04T00:26:49.320Z,-0.54
2022-12-04T00:29:18.190Z,-0.56
2022-12-04T00:31:48.083Z,-0.60
2022-12-04T00:34:16.794Z,-0.60
2022-12-04T00:36:45.414Z,-0.59
2022-12-04T00:39:13.902Z,-0.62
2022-12-04T00:41:42.432Z,-0.64
2022-12-04T00:44:10.915Z,-0.63
2022-12-04T00:46:39.439Z,-0.63
2022-12-04T00:49:09.299Z,-0.60
2022-12-04T00:51:37.815Z,-0.61
2022-12-04T00:54:06.347Z,-0.58
2022-12-04T00:56:34.849Z,-0.58
2022-12-04T00:59:03.603Z,-0.57
2022-12-04T01:01:32.541Z,-0.56
2022-12-04T01:04:01.474Z,-0.58
2022-12-04T01:06:34.534Z,-0.59
2022-12-04T01:09:05.979Z,-0.59
2022-12-04T01:11:35.041Z,-0.59
2022-12-04T01:14:03.747Z,-0.58
2022-12-04T01:16:34.892Z,-0.59
2022-12-04T01:19:03.888Z,-0.57
2022-12-04T01:21:33.854Z,-0.57
2022-12-04T01:24:02.409Z,-0.56
2022-12-04T01:26:31.367Z,-0.56
2022-12-04T01:29:00.187Z,-0.56
2022-12-04T01:31:28.834Z,-0.58
2022-12-04T01:33:57.445Z,-0.63
2022-12-04T01:36:30.116Z,-0.64
2022-12-04T01:39:03.118Z,-0.63
2022-12-04T01:41:33.155Z,-0.62
2022-12-04T01:44:19.148Z,-0.62
2022-12-04T01:46:51.455Z,-0.62
2022-12-04T01:49:24.882Z,-0.57
2022-12-04T01:51:55.762Z,-0.57
2022-12-04T01:54:29.938Z,-0.56
2022-12-04T01:57:02.967Z,-0.58
2022-12-04T01:59:37.241Z,-0.62
2022-12-04T02:02:08.866Z,-0.62
2022-12-04T02:04:38.716Z,-0.62
2022-12-04T02:07:07.335Z,-0.60
2022-12-04T02:09:39.800Z,-0.60
2022-12-04T02:12:16.493Z,-0.61
2022-12-04T02:14:53.436Z,-0.66
2022-12-04T02:17:28.892Z,-0.65
2022-12-04T02:20:13.887Z,-0.65
2022-12-04T02:23:15.556Z,-0.64
2022-12-04T02:25:54.512Z,-0.65
2022-12-04T02:28:27.289Z,-0.68
2022-12-04T02:31:00.833Z,-0.65
2022-12-04T02:33:36.205Z,-0.63
2022-12-04T02:36:08.115Z,-0.62
2022-12-04T02:38:41.772Z,-0.64
2022-12-04T02:41:15.633Z,-0.67
2022-12-04T02:43:48.522Z,-0.67
2022-12-04T02:46:22.216Z,-0.67
2022-12-04T02:48:54.600Z,-0.70
2022-12-04T02:51:27.264Z,-0.68
2022-12-04T02:53:59.753Z,-0.64
2022-12-04T02:56:31.343Z,-0.64
2022-12-04T02:59:05.623Z,-0.63
2022-12-04T03:01:37.675Z,-0.62
2022-12-04T03:04:13.191Z,-0.60
2022-12-04T03:06:45.307Z,-0.60
2022-12-04T03:09:18.787Z,-0.61
2022-12-04T03:11:53.696Z,-0.62
2022-12-04T03:14:27.384Z,-0.60
2022-12-04T03:17:02.568Z,-0.60
2022-12-04T03:19:38.398Z,-0.58
2022-12-04T03:22:11.673Z,-0.60
2022-12-04T03:24:44.880Z,-0.59
2022-12-04T03:27:17.947Z,-0.57
2022-12-04T03:29:55.050Z,-0.55
2022-12-04T03:32:28.766Z,-0.54
2022-12-04T03:35:00.521Z,-0.58
2022-12-04T03:37:37.208Z,-0.56
2022-12-04T03:40:12.759Z,-0.52
2022-12-04T03:42:45.784Z,-0.50
2022-12-04T03:45:23.184Z,-0.47
2022-12-04T03:47:58.310Z,-0.46
2022-12-04T03:50:35.217Z,-0.48
2022-12-04T03:53:10.094Z,-0.49
2022-12-04T03:55:46.384Z,-0.48
2022-12-04T03:58:20.938Z,-0.46
2022-12-04T04:00:53.887Z,-0.45
2022-12-04T04:03:26.271Z,-0.44
2022-12-04T04:06:05.770Z,-0.45
2022-12-04T04:08:37.500Z,-0.47
2022-12-04T04:11:14.206Z,-0.44
2022-12-04T04:14:05.104Z,-0.43
2022-12-04T04:16:55.485Z,-0.43
2022-12-04T04:19:44.483Z,-0.45
2022-12-04T04:22:32.152Z,-0.46
2022-12-04T04:25:06.329Z,-0.44
2022-12-04T04:27:34.883Z,-0.43
2022-12-04T04:30:03.711Z,-0.40
2022-12-04T04:32:37.879Z,-0.37
2022-12-04T04:35:15.214Z,-0.41
2022-12-04T04:37:54.923Z,-0.47
2022-12-04T04:40:32.347Z,-0.46
2022-12-04T04:43:08.948Z,-0.41
2022-12-04T04:45:39.901Z,-0.42
2022-12-04T04:48:15.079Z,-0.44
2022-12-04T04:50:45.478Z,-0.41
2022-12-04T04:53:17.230Z,-0.37
2022-12-04T04:55:47.059Z,-0.36
2022-12-04T04:58:18.840Z,-0.35
2022-12-04T05:00:57.925Z,-0.33
2022-12-04T05:03:28.607Z,-0.34
2022-12-04T05:05:57.636Z,-0.36
2022-12-04T05:08:26.192Z,-0.32
2022-12-04T05:10:54.903Z,-0.31
2022-12-04T05:13:23.771Z,-0.33
2022-12-04T05:15:58.604Z,-0.31
2022-12-04T05:18:29.220Z,-0.28
2022-12-04T05:20:56.999Z,-0.27
2022-12-04T05:23:25.921Z,-0.30
2022-12-04T05:26:00.899Z,-0.30
2022-12-04T05:28:30.048Z,-0.32
2022-12-04T05:30:59.182Z,-0.30
2022-12-04T05:33:29.132Z,-0.28
2022-12-04T05:35:59.017Z,-0.28
2022-12-04T05:38:27.794Z,-0.27
2022-12-04T05:40:58.690Z,-0.24
2022-12-04T05:43:27.283Z,-0.25
2022-12-04T05:45:55.892Z,-0.23
2022-12-04T05:48:24.433Z,-0.22
2022-12-04T05:50:54.331Z,-0.23
2022-12-04T05:53:22.996Z,-0.25
2022-12-04T05:56:02.454Z,-0.25
2022-12-04T05:58:31.189Z,-0.27
2022-12-04T06:00:59.664Z,-0.24
2022-12-04T06:03:28.460Z,-0.23
2022-12-04T06:05:58.386Z,-0.22
2022-12-04T06:08:26.887Z,-0.18
2022-12-04T06:10:55.415Z,-0.15
2022-12-04T06:13:23.955Z,-0.11
2022-12-04T06:15:52.467Z,-0.10
2022-12-04T06:18:20.997Z,-0.09
2022-12-04T06:20:49.561Z,-0.10
2022-12-04T06:23:19.458Z,-0.06
2022-12-04T06:25:47.967Z,-0.11
2022-12-04T06:28:16.560Z,-0.08
2022-12-04T06:30:45.092Z,-0.08
2022-12-04T06:33:13.560Z,-0.08
2022-12-04T06:35:42.054Z,-0.09
2022-12-04T06:38:10.574Z,-0.10
2022-12-04T06:40:42.175Z,-0.09
2022-12-04T06:43:10.707Z,-0.12
2022-12-04T06:45:39.234Z,-0.15
2022-12-04T06:48:07.988Z,-0.11
2022-12-04T06:50:36.613Z,-0.11
2022-12-04T06:53:08.491Z,-0.15
2022-12-04T06:55:37.294Z,-0.16
2022-12-04T06:58:07.560Z,-0.12
2022-12-04T07:00:36.096Z,-0.14
2022-12-04T07:03:04.966Z,-0.11
2022-12-04T07:05:33.468Z,-0.10
2022-12-04T07:08:02.016Z,-0.11
2022-12-04T07:10:30.614Z,-0.12
2022-12-04T07:12:59.171Z,-0.10
2022-12-04T07:15:29.060Z,-0.07
2022-12-04T07:17:58.230Z,-0.06
2022-12-04T07:20:26.890Z,-0.06
2022-12-04T07:22:55.567Z,-0.05
2022-12-04T07:25:24.438Z,-0.05
2022-12-04T07:27:52.995Z,-0.07
2022-12-04T07:30:21.809Z,-0.08
2022-12-04T07:32:51.658Z,-0.07
2022-12-04T07:35:20.260Z,-0.07
2022-12-04T07:37:48.899Z,-0.04
2022-12-04T07:40:17.622Z,-0.04
2022-12-04T07:42:46.158Z,-0.04
2022-12-04T07:45:14.802Z,-0.03
2022-12-04T07:47:43.325Z,-0.04
2022-12-04T07:50:13.317Z,-0.03
2022-12-04T07:52:41.860Z,-0.01
2022-12-04T07:55:10.822Z,0.01
2022-12-04T07:57:39.338Z,0.02
2022-12-04T08:00:09.139Z,0.01
2022-12-04T08:02:37.848Z,0.04
2022-12-04T08:05:06.857Z,0.07
2022-12-04T08:07:37.022Z,0.07
2022-12-04T08:10:06.552Z,0.04
2022-12-04T08:12:35.157Z,0.07
2022-12-04T08:15:03.656Z,0.09
2022-12-04T08:17:32.237Z,0.10
2022-12-04T08:20:01.359Z,0.13
2022-12-04T08:22:29.906Z,0.12
2022-12-04T08:24:59.899Z,0.12
2022-12-04T08:27:28.399Z,0.13
2022-12-04T08:29:57.467Z,0.14
2022-12-04T08:32:26.295Z,0.14
2022-12-04T08:34:56.020Z,0.18
2022-12-04T08:37:24.655Z,0.20
2022-12-04T08:39:53.597Z,0.20
2022-12-04T08:42:23.789Z,0.21
2022-12-04T08:44:52.315Z,0.22
2022-12-04T08:47:20.913Z,0.23
2022-12-04T08:49:49.487Z,0.24
2022-12-04T08:52:18.134Z,0.22
2022-12-04T08:54:46.939Z,0.22
2022-12-04T08:57:15.467Z,0.24
2022-12-04T08:59:45.415Z,0.26
2022-12-04T09:02:14.126Z,0.26
2022-12-04T09:04:43.081Z,0.26
2022-12-04T09:07:11.631Z,0.28
2022-12-04T09:09:44.932Z,0.29
2022-12-04T09:12:16.558Z,0.34
2022-12-04T09:14:46.499Z,0.31
2022-12-04T09:17:15.037Z,0.34
2022-12-04T09:19:43.840Z,0.35
2022-12-04T09:22:12.309Z,0.36
2022-12-04T09:24:40.794Z,0.37
2022-12-04T09:27:14.531Z,0.39
2022-12-04T09:29:43.574Z,0.36
2022-12-04T09:32:13.704Z,0.39
2022-12-04T09:34:42.236Z,0.42
2022-12-04T09:37:10.794Z,0.43
2022-12-04T09:39:39.356Z,0.43
2022-12-04T09:42:32.127Z,0.44
2022-12-04T09:45:07.096Z,0.49
2022-12-04T09:47:42.847Z,0.52
2022-12-04T09:50:16.140Z,0.54
2022-12-04T09:52:56.155Z,0.53
2022-12-04T09:55:28.908Z,0.57
2022-12-04T09:58:02.423Z,0.58
2022-12-04T10:00:33.944Z,0.60
2022-12-04T10:03:06.576Z,0.59
2022-12-04T10:05:46.784Z,0.59
2022-12-04T10:08:23.091Z,0.60
2022-12-04T10:11:02.600Z,0.59
2022-12-04T10:14:15.755Z,0.62
2022-12-04T10:16:57.265Z,0.60
2022-12-04T10:19:36.267Z,0.64
2022-12-04T10:22:13.250Z,0.64
2022-12-04T10:24:45.286Z,0.66
2022-12-04T10:27:25.416Z,0.64
2022-12-04T10:29:58.599Z,0.66
2022-12-04T10:32:31.382Z,0.66
2022-12-04T10:35:21.239Z,0.66
2022-12-04T10:37:55.323Z,0.68
2022-12-04T10:40:29.733Z,0.64
2022-12-04T10:43:01.875Z,0.69
2022-12-04T10:45:30.278Z,0.69
2022-12-04T10:47:59.580Z,0.69
2022-12-04T10:50:29.687Z,0.73
2022-12-04T10:52:58.174Z,0.75
2022-12-04T10:55:30.935Z,0.77
2022-12-04T10:57:59.585Z,0.79
2022-12-04T11:00:30.751Z,0.79
2022-12-04T11:03:02.340Z,0.80
2022-12-04T11:05:34.755Z,0.80
2022-12-04T11:08:07.605Z,0.85
2022-12-04T11:10:39.070Z,0.85
2022-12-04T11:13:15.970Z,0.85
2022-12-04T11:15:45.757Z,0.90
2022-12-04T11:18:19.241Z,0.86
2022-12-04T11:20:55.762Z,0.87
2022-12-04T11:23:24.942Z,0.87
2022-12-04T11:25:59.370Z,0.86
2022-12-04T11:28:41.556Z,0.89
2022-12-04T11:31:17.461Z,0.91
2022-12-04T11:33:49.766Z,0.92
2022-12-04T11:36:24.644Z,0.90
2022-12-04T11:38:55.604Z,0.91
2022-12-04T11:41:29.635Z,0.93
2022-12-04T11:44:00.733Z,0.96
2022-12-04T11:46:31.865Z,0.98
2022-12-04T11:49:00.518Z,0.98
2022-12-04T11:51:44.515Z,0.95
2022-12-04T11:54:27.723Z,0.98
2022-12-04T11:57:05.010Z,0.99
2022-12-04T11:59:48.914Z,1.01
2022-12-04T12:02:34.714Z,1.02
2022-12-04T12:05:30.614Z,1.04
2022-12-04T12:08:09.554Z,1.04
2022-12-04T12:10:49.324Z,1.04
2022-12-04T12:13:28.263Z,1.05
2022-12-04T12:16:05.526Z,1.06
2022-12-04T12:19:04.840Z,1.05
2022-12-04T12:21:41.387Z,1.02
2022-12-04T12:24:25.806Z,1.02
2022-12-04T12:27:06.588Z,1.02
2022-12-04T12:29:55.510Z,1.05
2022-12-04T12:32:47.237Z,1.05
2022-12-04T12:35:23.346Z,1.09
2022-12-04T12:37:54.681Z,1.08
2022-12-04T12:40:31.495Z,1.11
2022-12-04T12:43:06.289Z,1.12
2022-12-04T12:45:42.712Z,1.11
2022-12-04T12:48:24.275Z,1.11
2022-12-04T12:51:28.099Z,1.13
2022-12-04T12:53:51.307Z,1.14
2022-12-04T12:56:31.335Z,1.16
2022-12-04T12:59:04.367Z,1.16
2022-12-04T13:01:43.817Z,1.14
2022-12-04T13:04:18.596Z,1.15
2022-12-04T13:06:49.968Z,1.16
2022-12-04T13:09:25.555Z,1.17
2022-12-04T13:12:00.411Z,1.19
2022-12-04T13:14:28.915Z,1.21
2022-12-04T13:17:03.019Z,1.22
2022-12-04T13:19:36.187Z,1.23
2022-12-04T13:22:15.807Z,1.24
2022-12-04T13:25:20.681Z,1.25
2022-12-04T13:28:04.594Z,1.26
2022-12-04T13:30:43.518Z,1.26
2022-12-04T13:33:56.612Z,1.28
2022-12-04T13:36:39.143Z,1.32
2022-12-04T13:39:49.295Z,1.30
2022-12-04T13:42:25.063Z,1.32
2022-12-04T13:44:57.628Z,1.32
2022-12-04T13:47:28.365Z,1.31
2022-12-04T13:50:26.245Z,1.30
2022-12-04T13:52:54.962Z,1.31
2022-12-04T13:55:30.120Z,1.30
2022-12-04T13:58:00.903Z,1.30
2022-12-04T14:00:33.550Z,1.30
2022-12-04T14:03:06.044Z,1.30
2022-12-04T14:05:42.701Z,1.26
2022-12-04T14:08:25.537Z,1.29
2022-12-04T14:11:03.624Z,1.29
2022-12-04T14:13:43.898Z,1.29
2022-12-04T14:16:22.926Z,1.30
2022-12-04T14:18:54.892Z,1.30
2022-12-04T14:21:24.097Z,1.30
2022-12-04T14:23:53.939Z,1.31
2022-12-04T14:26:37.399Z,1.32
2022-12-04T14:29:34.720Z,1.34
2022-12-04T14:32:14.979Z,1.35
2022-12-04T14:34:44.125Z,1.32
2022-12-04T14:37:31.970Z,1.32
2022-12-04T14:40:01.881Z,1.32
2022-12-04T14:42:37.843Z,1.33
2022-12-04T14:45:21.428Z,1.33
2022-12-04T14:48:07.363Z,1.32
2022-12-04T14:50:43.516Z,1.31
2022-12-04T14:53:24.127Z,1.30
2022-12-04T14:56:04.619Z,1.34
2022-12-04T14:58:38.948Z,1.35
2022-12-04T15:01:22.705Z,1.39
2022-12-04T15:03:58.050Z,1.41
2022-12-04T15:06:28.551Z,1.40
2022-12-04T15:09:20.322Z,1.37
2022-12-04T15:12:09.061Z,1.39
2022-12-04T15:14:42.135Z,1.37
2022-12-04T15:17:11.251Z,1.36
2022-12-04T15:19:41.458Z,1.37
2022-12-04T15:22:19.449Z,1.36
2022-12-04T15:24:48.106Z,1.37
2022-12-04T15:27:19.190Z,1.35
2022-12-04T15:29:51.465Z,1.36
2022-12-04T15:32:23.940Z,1.37
2022-12-04T15:34:56.942Z,1.35
2022-12-04T15:37:28.524Z,1.36
2022-12-04T15:39:58.631Z,1.35
2022-12-04T15:42:30.335Z,1.34
2022-12-04T15:45:01.243Z,1.35
2022-12-04T15:47:32.932Z,1.33
2022-12-04T15:50:11.543Z,1.36
2022-12-04T15:52:50.328Z,1.35
2022-12-04T15:55:20.104Z,1.34
2022-12-04T15:57:53.662Z,1.37
2022-12-04T16:00:28.305Z,1.39
2022-12-04T16:02:58.355Z,1.39
2022-12-04T16:05:35.591Z,1.38
2022-12-04T16:08:23.894Z,1.42
2022-12-04T16:11:01.071Z,1.43
2022-12-04T16:13:32.823Z,1.44
2022-12-04T16:16:02.677Z,1.43
2022-12-04T16:18:31.222Z,1.43
2022-12-04T16:21:01.374Z,1.45
2022-12-04T16:23:29.855Z,1.48
2022-12-04T16:25:58.364Z,1.49
2022-12-04T16:28:26.877Z,1.49
2022-12-04T16:30:55.534Z,1.48
2022-12-04T16:33:24.206Z,1.48
2022-12-04T16:35:52.675Z,1.47
2022-12-04T16:38:22.656Z,1.50
2022-12-04T16:40:51.130Z,1.52
2022-12-04T16:43:19.876Z,1.50
2022-12-04T16:45:52.246Z,1.50
2022-12-04T16:48:21.292Z,1.51
2022-12-04T16:50:49.787Z,1.53
2022-12-04T16:53:19.743Z,1.54
2022-12-04T16:55:51.204Z,1.55
2022-12-04T16:58:20.940Z,1.56
2022-12-04T17:00:53.144Z,1.55
2022-12-04T17:03:26.536Z,1.54
2022-12-04T17:05:55.319Z,1.52
2022-12-04T17:08:24.183Z,1.50
2022-12-04T17:10:54.615Z,1.52
2022-12-04T17:13:23.691Z,1.51
2022-12-04T17:15:52.255Z,1.51
2022-12-04T17:18:21.488Z,1.53
2022-12-04T17:20:50.484Z,1.54
2022-12-04T17:23:19.125Z,1.57
2022-12-04T17:25:47.949Z,1.57
2022-12-04T17:28:19.297Z,1.59
2022-12-04T17:30:48.190Z,1.59
2022-12-04T17:33:16.677Z,1.59
2022-12-04T17:35:45.219Z,1.57
2022-12-04T17:38:13.742Z,1.60
2022-12-04T17:40:42.265Z,1.59
2022-12-04T17:43:10.848Z,1.61
2022-12-04T17:45:42.274Z,1.59
2022-12-04T17:48:10.779Z,1.58
2022-12-04T17:50:39.312Z,1.59
2022-12-04T17:53:08.004Z,1.58
2022-12-04T17:55:36.531Z,1.63
2022-12-04T17:58:05.282Z,1.63
2022-12-04T18:00:33.911Z,1.64
2022-12-04T18:03:04.245Z,1.67
2022-12-04T18:05:33.026Z,1.64
2022-12-04T18:08:01.534Z,1.68
2022-12-04T18:10:30.088Z,1.68
2022-12-04T18:12:58.595Z,1.69
2022-12-04T18:15:27.079Z,1.79
2022-12-04T18:17:55.803Z,1.77
2022-12-04T18:20:25.651Z,1.73
2022-12-04T18:22:54.123Z,1.72
2022-12-04T18:25:22.665Z,1.73
2022-12-04T18:27:51.161Z,1.72
2022-12-04T18:30:19.790Z,1.71
2022-12-04T18:32:48.324Z,1.75
2022-12-04T18:35:17.012Z,1.71
2022-12-04T18:37:47.091Z,1.73
2022-12-04T18:40:15.986Z,1.75
2022-12-04T18:42:44.606Z,1.77
2022-12-04T18:45:13.238Z,1.76
2022-12-04T18:47:41.710Z,1.77
2022-12-04T18:50:11.145Z,1.78
2022-12-04T18:52:40.527Z,1.77
2022-12-04T18:55:11.515Z,1.75
2022-12-04T18:57:40.367Z,1.77
2022-12-04T19:00:09.927Z,1.75
2022-12-04T19:02:38.843Z,1.78
2022-12-04T19:05:07.683Z,1.75
2022-12-04T19:07:36.499Z,1.76
2022-12-04T19:10:12.758Z,1.78
2022-12-04T19:12:42.942Z,1.77
2022-12-04T19:15:12.304Z,1.77
2022-12-04T19:17:40.791Z,1.78
2022-12-04T19:20:10.683Z,1.80
2022-12-04T19:22:39.470Z,1.82
2022-12-04T19:25:13.030Z,1.83
2022-12-04T19:27:43.064Z,1.86
2022-12-04T19:30:13.924Z,1.86
2022-12-04T19:32:43.282Z,1.88
2022-12-04T19:35:11.815Z,1.88
2022-12-04T19:37:42.114Z,1.87
2022-12-04T19:40:13.748Z,1.90
2022-12-04T19:42:43.732Z,1.89
2022-12-04T19:45:12.496Z,1.90
2022-12-04T19:47:40.996Z,1.87
2022-12-04T19:50:10.376Z,1.92
2022-12-04T19:52:38.891Z,1.94
2022-12-04T19:55:08.991Z,1.93
2022-12-04T19:57:39.687Z,1.97
2022-12-04T20:00:11.000Z,1.98
2022-12-04T20:02:42.185Z,1.97
2022-12-04T20:05:10.929Z,1.99
2022-12-04T20:07:41.103Z,1.97
2022-12-04T20:10:10.801Z,1.97
2022-12-04T20:12:39.323Z,2.00
2022-12-04T20:15:09.955Z,2.03
2022-12-04T20:17:38.445Z,1.99
2022-12-04T20:20:09.274Z,2.00
2022-12-04T20:22:37.949Z,2.01
2022-12-04T20:25:11.711Z,2.03
2022-12-04T20:27:40.437Z,2.06
2022-12-04T20:30:12.284Z,2.07
2022-12-04T20:32:57.801Z,2.07
2022-12-04T20:36:25.740Z,2.07
2022-12-04T20:39:06.978Z,2.06
2022-12-04T20:41:51.377Z,2.05
2022-12-04T20:44:40.542Z,2.04
2022-12-04T20:47:47.486Z,2.04
2022-12-04T20:50:32.206Z,2.03
2022-12-04T20:53:25.244Z,2.04
2022-12-04T20:56:29.017Z,2.05
2022-12-04T20:59:09.068Z,2.06
2022-12-04T21:01:51.902Z,2.08
2022-12-04T21:04:32.181Z,2.05
2022-12-04T21:07:02.609Z,2.03
2022-12-04T21:09:51.525Z,2.04
2022-12-04T21:12:46.471Z,2.03
2022-12-04T21:15:49.064Z,2.03
2022-12-04T21:18:27.978Z,2.03
2022-12-04T21:21:04.610Z,2.03
2022-12-04T21:23:57.983Z,2.03
2022-12-04T21:26:34.691Z,2.04
2022-12-04T21:29:10.034Z,1.99
2022-12-04T21:31:41.057Z,2.02
2022-12-04T21:34:19.594Z,2.04
2022-12-04T21:36:57.209Z,2.04
2022-12-04T21:39:32.428Z,2.04
2022-12-04T21:42:25.248Z,2.02
2022-12-04T21:45:02.773Z,2.03
2022-12-04T21:47:40.853Z,2.03
2022-12-04T21:50:23.562Z,2.04
2022-12-04T21:53:07.547Z,2.04
2022-12-04T21:55:40.035Z,2.05
2022-12-04T21:58:08.547Z,2.04
2022-12-04T22:00:37.030Z,2.04
2022-12-04T22:03:06.198Z,2.04
2022-12-04T22:05:34.889Z,2.01
2022-12-04T22:08:04.967Z,1.99
2022-12-04T22:10:33.671Z,2.02
2022-12-04T22:13:02.339Z,2.00
2022-12-04T22:15:30.814Z,2.00
2022-12-04T22:17:59.281Z,1.98
2022-12-04T22:20:27.794Z,1.97
2022-12-04T22:22:56.301Z,1.98
2022-12-04T22:25:26.363Z,1.96
2022-12-04T22:27:54.872Z,1.94
2022-12-04T22:30:23.577Z,1.96
2022-12-04T22:32:52.403Z,1.94
2022-12-04T22:35:20.987Z,1.96
2022-12-04T22:37:49.524Z,1.96
2022-12-04T22:40:18.291Z,1.95
2022-12-04T22:42:48.204Z,1.92
2022-12-04T22:45:16.794Z,1.91
2022-12-04T22:47:45.593Z,1.90
2022-12-04T22:50:14.125Z,1.91
2022-12-04T22:52:42.646Z,1.95
2022-12-04T22:55:11.230Z,1.94
2022-12-04T22:57:39.723Z,1.95
2022-12-04T23:00:11.607Z,1.95
2022-12-04T23:02:40.185Z,1.99
2022-12-04T23:05:08.845Z,1.98
2022-12-04T23:07:38.725Z,1.96
2022-12-04T23:10:08.372Z,1.96
2022-12-04T23:12:36.855Z,1.97
2022-12-04T23:15:06.100Z,1.99
2022-12-04T23:17:36.008Z,1.99
2022-12-04T23:20:05.170Z,2.00
2022-12-04T23:22:33.680Z,2.02
2022-12-04T23:25:02.315Z,1.99
2022-12-04T23:27:32.061Z,1.99
2022-12-04T23:30:00.570Z,1.98
2022-12-04T23:32:29.396Z,1.99
2022-12-04T23:34:59.271Z,1.99
2022-12-04T23:37:27.891Z,1.96
2022-12-04T23:39:56.696Z,1.99
2022-12-04T23:42:25.471Z,2.00
2022-12-04T23:44:54.012Z,1.98
2022-12-04T23:47:22.566Z,1.96
2022-12-04T23:49:51.111Z,1.98
2022-12-04T23:52:21.025Z,1.99
2022-12-04T23:54:49.543Z,1.98
2022-12-04T23:57:18.014Z,1.97
2022-12-04T23:59:46.784Z,1.97
